Terminal Aerodrome Forecast
Issued by NWS

Home | Current Version | Previous Version | Text Only | Print | Product List | Glossary Off
Versions: 1 2 3 4 5 6 7 8 9 10 11 12 13 14 15 16 17

000
FTUS43 KBIS 211100
TAFMOT
TAF
KMOT 211120Z 2112/2212 13014KT P6SM SKC WS020/17040KT
     FM212000 14014KT P6SM SCT120 SCT250
     FM220100 14009KT P6SM SCT180
     FM221000 23011KT P6SM VCSH SCT070 BKN090=

USA.gov is the U.S. government's official web portal to all federal, state and local government web resources and services.